createdAt,value
2019-01-02T00:00:04.446Z,89
2019-01-02T00:01:02.917Z,89
2019-01-02T00:02:03.881Z,89
2019-01-02T00:03:04.990Z,89
2019-01-02T00:04:03.173Z,89
2019-01-02T00:05:03.801Z,89
2019-01-02T00:06:02.963Z,89
2019-01-02T00:08:03.171Z,89
2019-01-02T00:09:03.521Z,89
2019-01-02T00:10:03.378Z,89
2019-01-02T00:12:03.387Z,89
2019-01-02T00:13:04.104Z,89
2019-01-02T00:14:03.310Z,89
2019-01-02T00:15:03.480Z,89
2019-01-02T00:16:03.505Z,89
2019-01-02T00:17:02.843Z,89
2019-01-02T00:18:03.304Z,89
2019-01-02T00:19:04.352Z,89
2019-01-02T00:20:03.417Z,89
2019-01-02T00:21:03.856Z,89
2019-01-02T00:22:03.508Z,89
2019-01-02T00:23:03.032Z,89
2019-01-02T00:24:05.550Z,89
2019-01-02T00:25:03.807Z,89
2019-01-02T00:26:03.754Z,89
2019-01-02T00:27:04.101Z,89
2019-01-02T00:28:03.787Z,89
2019-01-02T00:29:03.836Z,89
2019-01-02T00:30:03.712Z,89
2019-01-02T00:31:03.989Z,89
2019-01-02T00:32:04.936Z,89
2019-01-02T00:33:03.407Z,89
2019-01-02T00:34:03.659Z,89
2019-01-02T00:35:04.063Z,89
2019-01-02T00:36:03.801Z,89
2019-01-02T00:37:05.084Z,89
2019-01-02T00:38:03.722Z,89
2019-01-02T00:39:03.590Z,89
2019-01-02T00:40:04.072Z,89
2019-01-02T00:41:03.261Z,89
2019-01-02T00:42:03.886Z,89
2019-01-02T00:43:03.419Z,89
2019-01-02T00:44:03.159Z,89
2019-01-02T00:45:04.546Z,89
2019-01-02T00:46:03.363Z,89
2019-01-02T00:47:04.269Z,89
2019-01-02T00:48:04.424Z,89
2019-01-02T00:49:03.020Z,89
2019-01-02T00:50:04.270Z,89
2019-01-02T00:51:03.373Z,88
2019-01-02T00:52:05.483Z,88
2019-01-02T00:53:04.638Z,88
2019-01-02T00:54:03.155Z,88
2019-01-02T00:55:04.263Z,88
2019-01-02T00:56:02.536Z,88
2019-01-02T00:57:03.421Z,88
2019-01-02T00:58:04.908Z,88
2019-01-02T00:59:03.082Z,88
2019-01-02T01:00:04.912Z,90
2019-01-02T01:01:03.692Z,90
2019-01-02T01:02:02.690Z,90
2019-01-02T01:03:03.296Z,90
2019-01-02T01:04:03.086Z,90
2019-01-02T01:05:04.167Z,90
2019-01-02T01:06:03.137Z,90
2019-01-02T01:07:03.297Z,90
2019-01-02T01:08:03.533Z,90
2019-01-02T01:09:05.059Z,90
2019-01-02T01:10:04.418Z,90
2019-01-02T01:11:03.722Z,90
2019-01-02T01:12:03.596Z,90
2019-01-02T01:13:03.356Z,90
2019-01-02T01:14:03.632Z,90
2019-01-02T01:15:04.141Z,90
2019-01-02T01:16:03.484Z,90
2019-01-02T01:17:02.656Z,90
2019-01-02T01:18:03.754Z,90
2019-01-02T01:19:03.717Z,90
2019-01-02T01:20:04.410Z,90
2019-01-02T01:21:02.121Z,90
2019-01-02T01:22:03.917Z,90
2019-01-02T01:23:03.974Z,90
2019-01-02T01:24:03.445Z,90
2019-01-02T01:25:03.130Z,90
2019-01-02T01:26:04.334Z,89
2019-01-02T01:27:03.215Z,89
2019-01-02T01:28:03.686Z,89
2019-01-02T01:29:04.573Z,89
2019-01-02T01:30:03.624Z,89
2019-01-02T01:31:03.185Z,89
2019-01-02T01:32:03.090Z,89
2019-01-02T01:33:02.686Z,89
2019-01-02T01:34:03.000Z,89
2019-01-02T01:35:03.981Z,89
2019-01-02T01:36:03.665Z,90
2019-01-02T01:37:03.956Z,89
2019-01-02T01:38:03.807Z,90
2019-01-02T01:39:04.008Z,90
2019-01-02T01:40:03.760Z,89
2019-01-02T01:41:03.375Z,89
2019-01-02T01:42:03.732Z,89
2019-01-02T01:43:04.447Z,89
2019-01-02T01:44:03.221Z,89
2019-01-02T01:45:03.164Z,89
2019-01-02T01:46:03.853Z,89
2019-01-02T01:47:04.284Z,89
2019-01-02T01:48:02.792Z,89
2019-01-02T01:49:04.138Z,88
2019-01-02T01:50:03.186Z,88
2019-01-02T01:51:03.289Z,88
2019-01-02T01:52:04.796Z,88
2019-01-02T01:53:03.730Z,88
2019-01-02T01:54:04.461Z,88
2019-01-02T01:55:04.131Z,88
2019-01-02T01:56:03.459Z,88
2019-01-02T01:57:03.942Z,88
2019-01-02T01:58:03.157Z,88
2019-01-02T01:59:03.833Z,88
2019-01-02T02:00:04.350Z,88
2019-01-02T02:01:03.349Z,88
2019-01-02T02:02:03.517Z,88
2019-01-02T02:03:04.518Z,88
2019-01-02T02:05:03.372Z,89
2019-01-02T02:06:04.640Z,89
2019-01-02T02:07:03.477Z,89
2019-01-02T02:08:01.905Z,89
2019-01-02T02:09:04.539Z,89
2019-01-02T02:10:02.669Z,89
2019-01-02T02:11:03.631Z,89
2019-01-02T02:12:03.870Z,89
2019-01-02T02:13:03.002Z,89
2019-01-02T02:14:08.589Z,89
2019-01-02T02:15:03.369Z,89
2019-01-02T02:16:03.726Z,89
2019-01-02T02:17:03.877Z,89
2019-01-02T02:18:02.833Z,89
2019-01-02T02:19:03.297Z,89
2019-01-02T02:20:04.122Z,89
2019-01-02T02:21:02.923Z,89
2019-01-02T02:22:03.298Z,89
2019-01-02T02:23:04.213Z,89
2019-01-02T02:24:03.299Z,89
2019-01-02T02:25:03.802Z,89
2019-01-02T02:26:04.456Z,89
2019-01-02T02:27:03.622Z,89
2019-01-02T02:28:03.110Z,89
2019-01-02T02:29:04.473Z,89
2019-01-02T02:30:03.754Z,89
2019-01-02T02:31:03.464Z,89
2019-01-02T02:32:02.142Z,89
2019-01-02T02:33:03.447Z,89
2019-01-02T02:34:04.227Z,89
2019-01-02T02:35:02.980Z,89
2019-01-02T02:36:03.712Z,89
2019-01-02T02:38:03.420Z,89
2019-01-02T02:39:04.851Z,88
2019-01-02T02:40:03.122Z,88
2019-01-02T02:41:04.474Z,88
2019-01-02T02:42:03.716Z,88
2019-01-02T02:43:03.798Z,88
2019-01-02T02:44:04.568Z,88
2019-01-02T02:45:03.447Z,88
2019-01-02T02:46:04.074Z,88
2019-01-02T02:47:02.957Z,88
2019-01-02T02:48:04.599Z,89
2019-01-02T02:50:03.474Z,88
2019-01-02T02:51:05.115Z,88
2019-01-02T02:52:03.603Z,88
2019-01-02T02:53:04.597Z,88
2019-01-02T02:54:03.456Z,88
2019-01-02T02:55:03.633Z,88
2019-01-02T02:56:03.912Z,87
2019-01-02T02:57:03.013Z,87
2019-01-02T02:58:02.790Z,86
2019-01-02T02:59:04.574Z,86
2019-01-02T03:00:03.225Z,86
2019-01-02T03:01:05.456Z,86
2019-01-02T03:02:03.935Z,86
2019-01-02T03:03:03.666Z,86
2019-01-02T03:04:04.154Z,86
2019-01-02T03:05:04.586Z,86
2019-01-02T03:06:03.339Z,86
2019-01-02T03:07:03.058Z,86
2019-01-02T03:08:04.608Z,86
2019-01-02T03:09:03.521Z,86
2019-01-02T03:10:04.123Z,86
2019-01-02T03:11:04.318Z,85
2019-01-02T03:12:03.063Z,85
2019-01-02T03:13:03.527Z,85
2019-01-02T03:14:04.704Z,86
2019-01-02T03:15:03.261Z,86
2019-01-02T03:16:04.790Z,86
2019-01-02T03:17:04.594Z,86
2019-01-02T03:18:02.890Z,86
2019-01-02T03:20:04.729Z,86
2019-01-02T03:21:03.839Z,86
2019-01-02T03:22:04.585Z,86
2019-01-02T03:23:04.521Z,86
2019-01-02T03:24:03.089Z,86
2019-01-02T03:25:04.021Z,87
2019-01-02T03:26:04.084Z,87
2019-01-02T03:27:03.687Z,87
2019-01-02T03:28:04.694Z,87
2019-01-02T03:29:03.665Z,87
2019-01-02T03:30:08.304Z,87
2019-01-02T03:31:04.170Z,88
2019-01-02T03:32:04.914Z,88
2019-01-02T03:33:04.159Z,88
2019-01-02T03:34:03.340Z,88
2019-01-02T03:36:04.846Z,88
2019-01-02T03:37:02.946Z,88
2019-01-02T03:39:03.561Z,88
2019-01-02T03:40:03.716Z,88
2019-01-02T03:41:03.564Z,88
2019-01-02T03:42:02.907Z,88
2019-01-02T03:43:03.485Z,88
2019-01-02T03:44:03.010Z,88
2019-01-02T03:45:03.593Z,88
2019-01-02T03:46:03.592Z,88
2019-01-02T03:47:04.443Z,88
2019-01-02T03:48:03.569Z,88
2019-01-02T03:49:02.842Z,88
2019-01-02T03:50:03.570Z,88
2019-01-02T03:51:03.833Z,88
2019-01-02T03:52:03.020Z,88
2019-01-02T03:53:04.002Z,88
2019-01-02T03:54:03.122Z,88
2019-01-02T03:55:03.177Z,88
2019-01-02T03:56:03.031Z,88
2019-01-02T03:57:03.771Z,88
2019-01-02T03:58:03.382Z,88
2019-01-02T03:59:02.074Z,88
2019-01-02T04:00:03.484Z,88
2019-01-02T04:01:03.252Z,88
2019-01-02T04:02:03.429Z,88
2019-01-02T04:03:02.558Z,88
2019-01-02T04:04:03.844Z,88
2019-01-02T04:05:03.175Z,88
2019-01-02T04:06:03.039Z,88
2019-01-02T04:07:03.310Z,88
2019-01-02T04:08:03.046Z,88
2019-01-02T04:09:03.773Z,88
2019-01-02T04:10:03.342Z,88
2019-01-02T04:11:03.645Z,88
2019-01-02T04:12:03.697Z,88
2019-01-02T04:13:03.014Z,88
2019-01-02T04:14:03.708Z,88
2019-01-02T04:15:03.933Z,88
2019-01-02T04:16:03.447Z,88
2019-01-02T04:17:02.883Z,88
2019-01-02T04:18:03.987Z,88
2019-01-02T04:19:04.217Z,88
2019-01-02T04:20:03.784Z,88
2019-01-02T04:21:03.349Z,88
2019-01-02T04:22:03.207Z,88
2019-01-02T04:23:02.904Z,88
2019-01-02T04:24:03.243Z,88
2019-01-02T04:25:03.509Z,88
2019-01-02T04:26:03.917Z,88
2019-01-02T04:27:03.276Z,88
2019-01-02T04:28:03.768Z,87
2019-01-02T04:29:03.352Z,87
2019-01-02T04:30:03.064Z,87
2019-01-02T04:31:02.955Z,87
2019-01-02T04:32:03.296Z,87
2019-01-02T04:33:03.201Z,87
2019-01-02T04:34:02.947Z,87
2019-01-02T04:35:03.703Z,87
2019-01-02T04:36:03.296Z,87
2019-01-02T04:37:03.216Z,87
2019-01-02T04:38:03.883Z,87
2019-01-02T04:39:03.287Z,87
2019-01-02T04:40:03.226Z,87
2019-01-02T04:41:03.568Z,87
2019-01-02T04:42:03.346Z,87
2019-01-02T04:43:02.881Z,87
2019-01-02T04:44:03.593Z,87
2019-01-02T04:45:04.148Z,87
2019-01-02T04:46:03.018Z,87
2019-01-02T04:47:03.069Z,87
2019-01-02T04:49:03.543Z,87
2019-01-02T04:50:03.811Z,87
2019-01-02T04:51:03.748Z,86
2019-01-02T04:52:02.486Z,87
2019-01-02T04:53:04.003Z,86
2019-01-02T04:54:03.168Z,86
2019-01-02T04:55:03.686Z,86
2019-01-02T04:56:03.672Z,86
2019-01-02T04:57:03.591Z,86
2019-01-02T04:58:03.358Z,86
2019-01-02T04:59:03.041Z,86
2019-01-02T05:00:03.462Z,86
2019-01-02T05:01:03.628Z,86
2019-01-02T05:02:03.327Z,86
2019-01-02T05:03:04.169Z,86
2019-01-02T05:04:03.353Z,86
2019-01-02T05:05:03.417Z,86
2019-01-02T05:06:03.375Z,86
2019-01-02T05:07:03.556Z,86
2019-01-02T05:08:02.925Z,86
2019-01-02T05:09:07.175Z,86
2019-01-02T05:12:03.412Z,86
2019-01-02T05:13:03.088Z,86
2019-01-02T05:14:02.215Z,86
2019-01-02T05:15:03.112Z,86
2019-01-02T05:16:02.351Z,86
2019-01-02T05:17:03.703Z,86
2019-01-02T05:18:03.419Z,86
2019-01-02T05:19:03.583Z,86
2019-01-02T05:20:03.206Z,86
2019-01-02T05:21:03.882Z,86
2019-01-02T05:22:03.386Z,86
2019-01-02T05:23:03.196Z,86
2019-01-02T05:24:03.708Z,86
2019-01-02T05:25:03.749Z,86
2019-01-02T05:26:03.100Z,86
2019-01-02T05:27:03.112Z,86
2019-01-02T05:28:02.802Z,86
2019-01-02T05:29:03.671Z,86
2019-01-02T05:30:03.496Z,86
2019-01-02T05:31:04.123Z,86
2019-01-02T05:32:03.622Z,86
2019-01-02T05:33:03.281Z,86
2019-01-02T05:34:03.393Z,86
2019-01-02T05:35:03.090Z,86
2019-01-02T05:36:02.236Z,86
2019-01-02T05:37:03.671Z,86
2019-01-02T05:38:03.352Z,86
2019-01-02T05:39:03.012Z,86
2019-01-02T05:40:03.837Z,86
2019-01-02T05:41:03.500Z,86
2019-01-02T05:42:03.821Z,86
2019-01-02T05:43:03.657Z,86
2019-01-02T05:44:03.341Z,86
2019-01-02T05:45:02.924Z,86
2019-01-02T05:46:03.570Z,86
2019-01-02T05:47:03.109Z,86
2019-01-02T05:48:02.833Z,86
2019-01-02T05:49:03.015Z,86
2019-01-02T05:50:03.062Z,87
2019-01-02T05:51:03.950Z,87
2019-01-02T05:52:03.322Z,87
2019-01-02T05:53:03.102Z,87
2019-01-02T05:54:03.673Z,87
2019-01-02T05:55:03.591Z,87
2019-01-02T05:58:02.991Z,87
2019-01-02T05:59:03.536Z,87
2019-01-02T06:00:03.136Z,87
2019-01-02T06:01:03.392Z,87
2019-01-02T06:02:02.178Z,87
2019-01-02T06:03:03.247Z,87
2019-01-02T06:04:04.859Z,87
2019-01-02T06:05:02.977Z,87
2019-01-02T06:06:03.532Z,87
2019-01-02T06:07:02.889Z,87
2019-01-02T06:08:03.472Z,87
2019-01-02T06:09:03.050Z,87
2019-01-02T06:10:03.632Z,87
2019-01-02T06:11:03.782Z,87
2019-01-02T06:12:02.748Z,86
2019-01-02T06:13:03.586Z,86
2019-01-02T06:14:03.235Z,86
2019-01-02T06:15:03.195Z,86
2019-01-02T06:16:03.683Z,86
2019-01-02T06:17:04.184Z,86
2019-01-02T06:19:05.893Z,86
2019-01-02T06:20:03.563Z,86
2019-01-02T06:21:03.024Z,86
2019-01-02T06:22:02.754Z,86
2019-01-02T06:23:02.935Z,86
2019-01-02T06:24:01.982Z,86
2019-01-02T06:25:03.347Z,86
2019-01-02T06:26:02.325Z,86
2019-01-02T06:27:04.054Z,86
2019-01-02T06:28:03.258Z,86
2019-01-02T06:29:03.534Z,86
2019-01-02T06:30:03.659Z,86
2019-01-02T06:31:03.478Z,86
2019-01-02T06:32:02.804Z,86
2019-01-02T06:33:03.129Z,86
2019-01-02T06:34:03.013Z,86
2019-01-02T06:35:03.972Z,86
2019-01-02T06:36:03.241Z,86
2019-01-02T06:37:03.308Z,86
2019-01-02T06:38:02.942Z,86
2019-01-02T06:39:03.770Z,86
2019-01-02T06:40:03.512Z,86
2019-01-02T06:41:02.915Z,86
2019-01-02T06:42:02.892Z,86
2019-01-02T06:43:03.638Z,86
2019-01-02T06:44:03.735Z,86
2019-01-02T06:45:02.742Z,86
2019-01-02T06:46:04.004Z,86
2019-01-02T06:47:03.673Z,86
2019-01-02T06:48:03.182Z,86
2019-01-02T06:49:03.018Z,86
2019-01-02T06:50:03.688Z,86
2019-01-02T06:51:03.364Z,86
2019-01-02T06:52:02.154Z,86
2019-01-02T06:53:02.971Z,86
2019-01-02T06:54:02.820Z,86
2019-01-02T06:55:02.956Z,86
2019-01-02T06:56:03.173Z,86
2019-01-02T06:57:03.667Z,86
2019-01-02T06:58:03.588Z,86
2019-01-02T06:59:03.419Z,86
2019-01-02T07:00:02.954Z,86
2019-01-02T07:01:04.050Z,86
2019-01-02T07:02:03.879Z,86
2019-01-02T07:03:03.243Z,86
2019-01-02T07:04:02.845Z,86
2019-01-02T07:05:03.531Z,86
2019-01-02T07:06:03.434Z,86
2019-01-02T07:07:03.433Z,86
2019-01-02T07:08:03.232Z,86
2019-01-02T07:09:03.529Z,86
2019-01-02T07:10:03.031Z,86
2019-01-02T07:11:03.262Z,86
2019-01-02T07:12:03.119Z,86
2019-01-02T07:13:02.838Z,87
2019-01-02T07:14:03.061Z,86
2019-01-02T07:15:03.498Z,86
2019-01-02T07:16:03.259Z,86
2019-01-02T07:17:03.762Z,86
2019-01-02T07:18:02.951Z,86
2019-01-02T07:19:03.678Z,87
2019-01-02T07:20:03.683Z,86
2019-01-02T07:21:03.542Z,87
2019-01-02T07:22:03.416Z,87
2019-01-02T07:23:03.797Z,87
2019-01-02T07:24:03.248Z,87
2019-01-02T07:25:03.864Z,87
2019-01-02T07:26:03.584Z,87
2019-01-02T07:27:03.265Z,87
2019-01-02T07:28:02.885Z,87
2019-01-02T07:29:03.633Z,87
2019-01-02T07:30:02.939Z,87
2019-01-02T07:32:04.638Z,87
2019-01-02T07:33:03.501Z,87
2019-01-02T07:34:02.767Z,87
2019-01-02T07:35:03.443Z,87
2019-01-02T07:36:02.793Z,87
2019-01-02T07:37:03.965Z,87
2019-01-02T07:38:03.622Z,87
2019-01-02T07:39:03.492Z,87
2019-01-02T07:40:03.377Z,87
2019-01-02T07:41:03.537Z,87
2019-01-02T07:42:03.249Z,87
2019-01-02T07:43:03.783Z,87
2019-01-02T07:44:03.338Z,87
2019-01-02T07:45:02.844Z,87
2019-01-02T07:46:03.972Z,87
2019-01-02T07:47:04.395Z,87
2019-01-02T07:48:03.403Z,87
2019-01-02T07:49:03.305Z,87
2019-01-02T07:50:03.523Z,87
2019-01-02T07:51:02.834Z,87
2019-01-02T07:53:02.938Z,87
2019-01-02T07:54:03.789Z,87
2019-01-02T07:55:02.662Z,87
2019-01-02T07:56:03.357Z,87
2019-01-02T07:57:06.825Z,87
2019-01-02T07:58:02.639Z,87
2019-01-02T07:59:02.034Z,87
2019-01-02T08:00:03.869Z,87
2019-01-02T08:01:02.063Z,87
2019-01-02T08:02:03.348Z,87
2019-01-02T08:03:03.010Z,87
2019-01-02T08:04:02.897Z,87
2019-01-02T08:05:03.779Z,87
2019-01-02T08:06:03.040Z,87
2019-01-02T08:07:03.777Z,87
2019-01-02T08:08:02.906Z,87
2019-01-02T08:09:03.490Z,87
2019-01-02T08:10:03.058Z,87
2019-01-02T08:11:04.494Z,87
2019-01-02T08:12:03.615Z,87
2019-01-02T08:13:03.311Z,87
2019-01-02T08:14:03.773Z,87
2019-01-02T08:15:03.898Z,87
2019-01-02T08:16:02.998Z,87
2019-01-02T08:17:03.747Z,87
2019-01-02T08:18:02.937Z,87
2019-01-02T08:19:02.894Z,87
2019-01-02T08:20:04.305Z,87
2019-01-02T08:22:02.792Z,87
2019-01-02T08:23:02.797Z,87
2019-01-02T08:24:03.115Z,87
2019-01-02T08:25:03.157Z,87
2019-01-02T08:26:02.889Z,87
2019-01-02T08:27:03.919Z,87
2019-01-02T08:28:03.198Z,87
2019-01-02T08:29:02.951Z,87
2019-01-02T08:30:03.398Z,87
2019-01-02T08:31:03.062Z,87
2019-01-02T08:32:03.356Z,87
2019-01-02T08:33:03.661Z,87
2019-01-02T08:34:02.890Z,87
2019-01-02T08:35:03.405Z,87
2019-01-02T08:36:03.700Z,87
2019-01-02T08:37:03.305Z,87
2019-01-02T08:38:04.119Z,87
2019-01-02T08:39:03.347Z,87
2019-01-02T08:40:05.365Z,87
2019-01-02T08:41:02.894Z,87
2019-01-02T08:42:05.177Z,87
2019-01-02T08:43:03.162Z,87
2019-01-02T08:44:03.750Z,86
2019-01-02T08:45:03.280Z,86
2019-01-02T08:46:02.971Z,86
2019-01-02T08:47:02.926Z,86
2019-01-02T08:48:03.915Z,86
2019-01-02T08:49:03.418Z,86
2019-01-02T08:50:02.496Z,86
2019-01-02T08:51:02.985Z,86
2019-01-02T08:52:03.157Z,86
2019-01-02T08:53:03.035Z,86
2019-01-02T08:54:02.948Z,86
2019-01-02T08:55:04.031Z,86
2019-01-02T08:56:04.957Z,86
2019-01-02T08:57:04.147Z,86
2019-01-02T08:58:03.482Z,86
2019-01-02T08:59:03.274Z,86
2019-01-02T09:00:03.830Z,86
2019-01-02T09:01:04.370Z,86
2019-01-02T09:02:03.227Z,86
2019-01-02T09:03:04.426Z,86
2019-01-02T09:04:03.837Z,86
2019-01-02T09:05:03.383Z,86
2019-01-02T09:06:02.858Z,86
2019-01-02T09:07:04.392Z,86
2019-01-02T09:08:03.797Z,86
2019-01-02T09:09:03.089Z,86
2019-01-02T09:10:02.758Z,86
2019-01-02T09:11:02.482Z,86
2019-01-02T09:12:04.514Z,86
2019-01-02T09:13:02.917Z,86
2019-01-02T09:14:03.249Z,86
2019-01-02T09:15:03.904Z,86
2019-01-02T09:16:05.318Z,86
2019-01-02T09:17:03.807Z,86
2019-01-02T09:18:03.340Z,86
2019-01-02T09:19:03.076Z,86
2019-01-02T09:20:03.265Z,86
2019-01-02T09:21:04.017Z,86
2019-01-02T09:22:03.255Z,86
2019-01-02T09:23:03.145Z,86
2019-01-02T09:24:02.907Z,86
2019-01-02T09:25:03.514Z,86
2019-01-02T09:26:03.185Z,86
2019-01-02T09:27:03.518Z,86
2019-01-02T09:28:03.248Z,86
2019-01-02T09:29:03.898Z,86
2019-01-02T09:30:03.157Z,86
2019-01-02T09:31:04.059Z,85
2019-01-02T09:33:03.676Z,85
2019-01-02T09:34:03.067Z,85
2019-01-02T09:35:03.659Z,85
2019-01-02T09:36:03.015Z,85
2019-01-02T09:37:03.534Z,85
2019-01-02T09:38:03.117Z,85
2019-01-02T09:39:03.759Z,85
2019-01-02T09:40:05.345Z,85
2019-01-02T09:41:04.142Z,85
2019-01-02T09:42:02.851Z,85
2019-01-02T09:43:03.482Z,85
2019-01-02T09:44:02.952Z,85
2019-01-02T09:45:08.085Z,85
2019-01-02T09:46:03.207Z,85
2019-01-02T09:47:03.857Z,85
2019-01-02T09:48:03.967Z,85
2019-01-02T09:49:03.050Z,85
2019-01-02T09:50:04.554Z,85
2019-01-02T09:51:03.823Z,85
2019-01-02T09:52:03.082Z,85
2019-01-02T09:53:01.928Z,85
2019-01-02T09:54:03.568Z,84
2019-01-02T09:55:03.991Z,84
2019-01-02T09:56:02.291Z,84
2019-01-02T09:57:03.423Z,84
2019-01-02T09:58:03.271Z,84
2019-01-02T09:59:05.108Z,84
2019-01-02T10:00:03.038Z,84
2019-01-02T10:01:03.510Z,84
2019-01-02T10:02:02.919Z,84
2019-01-02T10:03:03.619Z,84
2019-01-02T10:04:03.192Z,83
2019-01-02T10:05:04.313Z,83
2019-01-02T10:06:03.433Z,83
2019-01-02T10:07:02.982Z,83
2019-01-02T10:08:03.367Z,83
2019-01-02T10:09:03.494Z,83
2019-01-02T10:10:02.937Z,83
2019-01-02T10:11:04.763Z,83
2019-01-02T10:12:03.553Z,83
2019-01-02T10:14:03.380Z,82
2019-01-02T10:15:03.711Z,82
2019-01-02T10:16:04.382Z,82
2019-01-02T10:17:03.160Z,82
2019-01-02T10:18:02.825Z,82
2019-01-02T10:19:02.992Z,82
2019-01-02T10:20:03.871Z,82
2019-01-02T10:21:03.530Z,82
2019-01-02T10:22:03.334Z,82
2019-01-02T10:23:02.839Z,81
2019-01-02T10:24:03.060Z,81
2019-01-02T10:25:03.196Z,80
2019-01-02T10:26:03.760Z,80
2019-01-02T10:27:03.146Z,80
2019-01-02T10:28:03.710Z,80
2019-01-02T10:29:03.535Z,80
2019-01-02T10:30:02.652Z,80
2019-01-02T10:31:03.552Z,79
2019-01-02T10:32:03.324Z,79
2019-01-02T10:33:03.323Z,79
2019-01-02T10:34:05.456Z,79
2019-01-02T10:35:03.868Z,79
2019-01-02T10:36:04.014Z,79
2019-01-02T10:37:03.178Z,78
2019-01-02T10:39:03.669Z,78
2019-01-02T10:40:02.400Z,78
2019-01-02T10:41:02.759Z,78
2019-01-02T10:42:03.664Z,78
2019-01-02T10:43:03.077Z,78
2019-01-02T10:44:03.591Z,78
2019-01-02T10:45:03.539Z,77
2019-01-02T10:46:03.341Z,77
2019-01-02T10:47:03.948Z,77
2019-01-02T10:48:03.782Z,77
2019-01-02T10:49:03.988Z,77
2019-01-02T10:50:03.247Z,77
2019-01-02T10:51:03.649Z,0
2019-01-02T10:52:03.715Z,76
2019-01-02T10:53:04.163Z,76
2019-01-02T10:54:03.173Z,76
2019-01-02T10:55:03.637Z,77
2019-01-02T10:56:03.724Z,77
2019-01-02T10:57:03.070Z,77
2019-01-02T10:58:04.120Z,78
2019-01-02T10:59:03.174Z,78
2019-01-02T11:00:03.714Z,78
2019-01-02T11:01:03.342Z,78
2019-01-02T11:02:03.545Z,78
2019-01-02T11:04:02.971Z,78
2019-01-02T11:05:02.786Z,78
2019-01-02T11:06:03.340Z,78
2019-01-02T11:07:03.117Z,78
2019-01-02T11:08:02.820Z,78
2019-01-02T11:09:02.802Z,78
2019-01-02T11:10:03.698Z,78
2019-01-02T11:11:03.147Z,77
2019-01-02T11:12:04.174Z,78
2019-01-02T11:13:03.914Z,78
2019-01-02T11:14:04.068Z,78
2019-01-02T11:15:03.984Z,78
2019-01-02T11:16:03.375Z,78
2019-01-02T11:17:04.431Z,78
2019-01-02T11:18:03.549Z,78
2019-01-02T11:19:02.886Z,78
2019-01-02T11:20:03.450Z,78
2019-01-02T11:21:03.144Z,78
2019-01-02T11:22:02.938Z,78
2019-01-02T11:23:03.512Z,78
2019-01-02T11:24:04.053Z,78
2019-01-02T11:25:05.501Z,78
2019-01-02T11:26:03.256Z,78
2019-01-02T11:27:03.170Z,78
2019-01-02T11:29:02.567Z,78
2019-01-02T11:30:03.130Z,78
2019-01-02T11:31:03.246Z,78
2019-01-02T11:32:02.890Z,78
2019-01-02T11:33:04.016Z,78
2019-01-02T11:34:02.825Z,78
2019-01-02T11:35:04.330Z,79
2019-01-02T11:36:03.298Z,79
2019-01-02T11:37:03.218Z,78
2019-01-02T11:38:02.907Z,79
2019-01-02T11:39:03.814Z,79
2019-01-02T11:40:03.434Z,78
2019-01-02T11:41:02.873Z,78
2019-01-02T11:42:03.000Z,78
2019-01-02T11:43:03.732Z,78
2019-01-02T11:44:03.342Z,78
2019-01-02T11:45:03.089Z,78
2019-01-02T11:46:03.188Z,78
2019-01-02T11:47:04.550Z,78
2019-01-02T11:48:03.324Z,78
2019-01-02T11:49:02.918Z,78
2019-01-02T11:50:03.692Z,78
2019-01-02T11:51:04.388Z,78
2019-01-02T11:52:03.104Z,78
2019-01-02T11:53:02.968Z,78
2019-01-02T11:54:04.265Z,78
2019-01-02T11:55:04.067Z,78
2019-01-02T11:56:03.208Z,78
2019-01-02T11:57:03.467Z,78
2019-01-02T11:58:03.679Z,78
2019-01-02T11:59:03.699Z,78
2019-01-02T12:00:03.569Z,78
2019-01-02T12:01:03.229Z,78
2019-01-02T12:02:04.768Z,78
2019-01-02T12:03:03.528Z,78
2019-01-02T12:04:03.408Z,78
2019-01-02T12:05:03.240Z,78
2019-01-02T12:06:03.053Z,78
2019-01-02T12:07:02.878Z,78
2019-01-02T12:08:03.395Z,78
2019-01-02T12:09:03.239Z,78
2019-01-02T12:10:03.747Z,78
2019-01-02T12:11:03.510Z,78
2019-01-02T12:12:03.572Z,78
2019-01-02T12:13:02.946Z,78
2019-01-02T12:14:03.695Z,78
2019-01-02T12:15:02.461Z,78
2019-01-02T12:16:03.868Z,78
2019-01-02T12:17:02.601Z,78
2019-01-02T12:18:03.481Z,78
2019-01-02T12:19:03.195Z,78
2019-01-02T12:20:03.293Z,78
2019-01-02T12:21:03.150Z,78
2019-01-02T12:22:04.453Z,78
2019-01-02T12:23:04.108Z,78
2019-01-02T12:24:02.922Z,78
2019-01-02T12:25:03.276Z,78
2019-01-02T12:26:03.172Z,78
2019-01-02T12:27:03.007Z,78
2019-01-02T12:28:02.928Z,78
2019-01-02T12:29:03.627Z,78
2019-01-02T12:30:03.328Z,78
2019-01-02T12:31:03.033Z,78
2019-01-02T12:32:03.145Z,78
2019-01-02T12:33:03.602Z,78
2019-01-02T12:34:03.675Z,78
2019-01-02T12:35:04.533Z,78
2019-01-02T12:36:02.898Z,79
2019-01-02T12:37:04.587Z,80
2019-01-02T12:38:03.401Z,81
2019-01-02T12:39:03.190Z,81
2019-01-02T12:40:03.235Z,81
2019-01-02T12:41:04.090Z,83
2019-01-02T12:42:03.235Z,84
2019-01-02T12:43:03.042Z,84
2019-01-02T12:44:03.474Z,85
2019-01-02T12:45:03.137Z,85
2019-01-02T12:46:03.048Z,85
2019-01-02T12:47:03.094Z,85
2019-01-02T12:48:03.386Z,86
2019-01-02T12:49:03.019Z,86
2019-01-02T12:50:02.891Z,86
2019-01-02T12:51:03.609Z,86
2019-01-02T12:52:03.841Z,86
2019-01-02T12:53:03.365Z,86
2019-01-02T12:54:03.071Z,86
2019-01-02T12:55:03.904Z,87
2019-01-02T12:56:03.176Z,87
2019-01-02T12:57:03.309Z,87
2019-01-02T12:58:03.328Z,87
2019-01-02T12:59:03.468Z,87
2019-01-02T13:04:25.435Z,0
2019-01-02T13:08:18.782Z,0
2019-01-02T13:08:51.388Z,0
2019-01-02T13:09:31.967Z,0
2019-01-02T13:10:10.389Z,0
2019-01-02T13:11:03.253Z,88
2019-01-02T13:12:03.112Z,88
2019-01-02T13:13:03.337Z,88
2019-01-02T13:14:03.776Z,88
2019-01-02T13:15:03.134Z,88
2019-01-02T13:16:03.698Z,88
2019-01-02T13:17:03.828Z,88
2019-01-02T13:18:03.300Z,88
2019-01-02T13:19:02.969Z,88
2019-01-02T13:20:04.024Z,88
2019-01-02T13:21:03.517Z,88
2019-01-02T13:22:04.485Z,88
2019-01-02T13:23:03.703Z,89
2019-01-02T13:24:03.230Z,89
2019-01-02T13:25:03.364Z,89
2019-01-02T13:26:03.469Z,89
2019-01-02T13:27:03.273Z,89
2019-01-02T13:28:03.147Z,89
2019-01-02T13:29:05.066Z,89
2019-01-02T13:30:02.462Z,89
2019-01-02T13:31:03.229Z,89
2019-01-02T13:32:03.395Z,89
2019-01-02T13:33:02.528Z,89
2019-01-02T13:34:03.445Z,89
2019-01-02T13:35:03.727Z,89
2019-01-02T13:36:03.116Z,89
2019-01-02T13:37:03.705Z,89
2019-01-02T13:38:03.077Z,89
2019-01-02T13:39:03.341Z,89
2019-01-02T13:40:03.823Z,89
2019-01-02T13:41:03.650Z,89
2019-01-02T13:42:02.896Z,89
2019-01-02T13:43:03.585Z,89
2019-01-02T13:44:03.954Z,89
2019-01-02T13:45:03.337Z,89
2019-01-02T13:46:03.684Z,89
2019-01-02T13:47:03.074Z,89
2019-01-02T13:48:03.449Z,89
2019-01-02T13:49:03.295Z,89
2019-01-02T13:50:03.646Z,89
2019-01-02T13:51:04.303Z,89
2019-01-02T13:52:02.689Z,90
2019-01-02T13:53:03.534Z,90
2019-01-02T13:54:02.032Z,90
2019-01-02T13:55:03.745Z,90
2019-01-02T13:56:03.494Z,90
2019-01-02T13:57:02.979Z,90
2019-01-02T13:58:03.373Z,90
2019-01-02T13:59:03.013Z,90
2019-01-02T14:00:03.525Z,90
2019-01-02T14:01:03.704Z,90
2019-01-02T14:02:03.171Z,90
2019-01-02T14:03:04.016Z,90
2019-01-02T14:04:03.472Z,90
2019-01-02T14:05:03.581Z,90
2019-01-02T14:06:03.053Z,90
2019-01-02T14:07:03.453Z,90
2019-01-02T14:08:03.178Z,90
2019-01-02T14:09:03.371Z,90
2019-01-02T14:10:03.578Z,90
2019-01-02T14:11:02.948Z,90
2019-01-02T14:12:03.759Z,90
2019-01-02T14:13:03.005Z,90
2019-01-02T14:14:02.140Z,90
2019-01-02T14:15:03.635Z,90
2019-01-02T14:16:03.004Z,90
2019-01-02T14:17:03.487Z,90
2019-01-02T14:18:03.852Z,90
2019-01-02T14:19:03.621Z,90
2019-01-02T14:20:02.788Z,90
2019-01-02T14:21:03.395Z,89
2019-01-02T14:22:03.827Z,89
2019-01-02T14:23:03.331Z,89
2019-01-02T14:24:03.579Z,89
2019-01-02T14:25:02.892Z,89
2019-01-02T14:26:03.349Z,89
2019-01-02T14:27:02.976Z,89
2019-01-02T14:28:03.654Z,89
2019-01-02T14:29:03.284Z,89
2019-01-02T14:30:03.136Z,89
2019-01-02T14:31:04.218Z,89
2019-01-02T14:32:03.748Z,89
2019-01-02T14:33:03.090Z,89
2019-01-02T14:34:03.594Z,89
2019-01-02T14:35:02.258Z,89
2019-01-02T14:36:03.657Z,89
2019-01-02T14:37:02.806Z,89
2019-01-02T14:38:03.489Z,89
2019-01-02T14:39:03.257Z,89
2019-01-02T14:40:02.877Z,89
2019-01-02T14:41:03.118Z,89
2019-01-02T14:42:04.038Z,89
2019-01-02T14:43:02.262Z,89